sensor_id;sensor_type;location;lat;lon;timestamp;pressure;altitude;pressure_sealevel;temperature;humidity
7836;BME280;3963;42.658;23.298;2022-09-09T00:02:27;60336.13;;;17.11;100.00
7836;BME280;3963;42.658;23.298;2022-09-09T00:04:59;60351.28;;;17.10;100.00
7836;BME280;3963;42.658;23.298;2022-09-09T00:07:36;60308.47;;;17.14;100.00
7836;BME280;3963;42.658;23.298;2022-09-09T00:10:16;60355.16;;;17.17;100.00
7836;BME280;3963;42.658;23.298;2022-09-09T00:12:53;60342.06;;;17.17;100.00
7836;BME280;3963;42.658;23.298;2022-09-09T00:15:23;60315.72;;;17.11;100.00
7836;BME280;3963;42.658;23.298;2022-09-09T00:17:56;60315.09;;;17.08;100.00
7836;BME280;3963;42.658;23.298;2022-09-09T00:20:29;60280.03;;;16.93;100.00
7836;BME280;3963;42.658;23.298;2022-09-09T00:23:00;60310.50;;;16.97;100.00
7836;BME280;3963;42.658;23.298;2022-09-09T00:25:35;60308.34;;;16.95;100.00
7836;BME280;3963;42.658;23.298;2022-09-09T00:28:10;60301.50;;;16.93;100.00
7836;BME280;3963;42.658;23.298;2022-09-09T00:30:40;60305.13;;;16.92;100.00
7836;BME280;3963;42.658;23.298;2022-09-09T00:33:12;60287.19;;;16.87;100.00
7836;BME280;3963;42.658;23.298;2022-09-09T00:35:44;60273.84;;;16.80;100.00
7836;BME280;3963;42.658;23.298;2022-09-09T00:38:14;60310.53;;;16.82;100.00
7836;BME280;3963;42.658;23.298;2022-09-09T00:40:49;60297.03;;;16.84;100.00
7836;BME280;3963;42.658;23.298;2022-09-09T00:43:28;60279.16;;;16.82;100.00
7836;BME280;3963;42.658;23.298;2022-09-09T00:46:10;60261.97;;;16.69;100.00
7836;BME280;3963;42.658;23.298;2022-09-09T00:48:50;60254.16;;;16.54;100.00
7836;BME280;3963;42.658;23.298;2022-09-09T00:51:22;60243.69;;;16.54;100.00
7836;BME280;3963;42.658;23.298;2022-09-09T00:54:08;60261.00;;;16.55;100.00
7836;BME280;3963;42.658;23.298;2022-09-09T00:56:45;60256.84;;;16.56;100.00
7836;BME280;3963;42.658;23.298;2022-09-09T00:59:24;60271.72;;;16.63;100.00
7836;BME280;3963;42.658;23.298;2022-09-09T01:01:53;60264.06;;;16.53;100.00
7836;BME280;3963;42.658;23.298;2022-09-09T01:04:25;60258.22;;;16.36;100.00
7836;BME280;3963;42.658;23.298;2022-09-09T01:07:04;60224.41;;;16.41;100.00
7836;BME280;3963;42.658;23.298;2022-09-09T01:09:44;60283.81;;;16.50;100.00
7836;BME280;3963;42.658;23.298;2022-09-09T01:12:16;60239.53;;;16.55;100.00
7836;BME280;3963;42.658;23.298;2022-09-09T01:14:47;60249.28;;;16.49;100.00
7836;BME280;3963;42.658;23.298;2022-09-09T01:17:17;60257.13;;;16.49;100.00
7836;BME280;3963;42.658;23.298;2022-09-09T01:19:57;60247.03;;;16.45;100.00
7836;BME280;3963;42.658;23.298;2022-09-09T01:22:33;60253.97;;;16.49;100.00
7836;BME280;3963;42.658;23.298;2022-09-09T01:25:22;60204.75;;;16.47;100.00
7836;BME280;3963;42.658;23.298;2022-09-09T01:27:54;60243.25;;;16.56;100.00
7836;BME280;3963;42.658;23.298;2022-09-09T01:30:22;60266.78;;;16.56;100.00
7836;BME280;3963;42.658;23.298;2022-09-09T01:32:52;60240.44;;;16.51;100.00
7836;BME280;3963;42.658;23.298;2022-09-09T01:35:29;60214.84;;;16.51;100.00
7836;BME280;3963;42.658;23.298;2022-09-09T01:37:58;60259.00;;;16.58;100.00
7836;BME280;3963;42.658;23.298;2022-09-09T01:40:25;60252.78;;;16.60;100.00
7836;BME280;3963;42.658;23.298;2022-09-09T01:42:55;60234.50;;;16.45;100.00
7836;BME280;3963;42.658;23.298;2022-09-09T01:45:24;60239.63;;;16.43;100.00
7836;BME280;3963;42.658;23.298;2022-09-09T01:47:52;60220.19;;;16.39;100.00
7836;BME280;3963;42.658;23.298;2022-09-09T01:50:20;60247.31;;;16.38;100.00
7836;BME280;3963;42.658;23.298;2022-09-09T01:52:53;60260.38;;;16.38;100.00
7836;BME280;3963;42.658;23.298;2022-09-09T01:55:28;60261.56;;;16.27;100.00
7836;BME280;3963;42.658;23.298;2022-09-09T01:58:15;60218.47;;;16.35;100.00
7836;BME280;3963;42.658;23.298;2022-09-09T02:00:49;60207.41;;;16.32;100.00
7836;BME280;3963;42.658;23.298;2022-09-09T02:03:23;60209.16;;;16.22;100.00
7836;BME280;3963;42.658;23.298;2022-09-09T02:05:57;60207.13;;;16.25;100.00
7836;BME280;3963;42.658;23.298;2022-09-09T02:08:33;60232.44;;;16.31;100.00
7836;BME280;3963;42.658;23.298;2022-09-09T02:11:06;60212.38;;;16.25;100.00
7836;BME280;3963;42.658;23.298;2022-09-09T02:13:36;60246.34;;;16.25;100.00
7836;BME280;3963;42.658;23.298;2022-09-09T02:16:07;60194.66;;;16.11;100.00
7836;BME280;3963;42.658;23.298;2022-09-09T02:18:38;60162.50;;;16.02;100.00
7836;BME280;3963;42.658;23.298;2022-09-09T02:21:08;60163.72;;;15.91;100.00
7836;BME280;3963;42.658;23.298;2022-09-09T02:23:37;60172.41;;;16.02;100.00
7836;BME280;3963;42.658;23.298;2022-09-09T02:26:07;60174.78;;;15.94;100.00
7836;BME280;3963;42.658;23.298;2022-09-09T02:28:38;60197.84;;;15.96;100.00
7836;BME280;3963;42.658;23.298;2022-09-09T02:31:07;60157.13;;;15.97;100.00
7836;BME280;3963;42.658;23.298;2022-09-09T02:33:38;60162.88;;;15.98;100.00
7836;BME280;3963;42.658;23.298;2022-09-09T02:36:07;60174.59;;;15.89;100.00
7836;BME280;3963;42.658;23.298;2022-09-09T02:38:38;60177.69;;;15.87;100.00
7836;BME280;3963;42.658;23.298;2022-09-09T02:41:07;60187.56;;;15.87;100.00
7836;BME280;3963;42.658;23.298;2022-09-09T02:43:34;60159.56;;;15.92;100.00
7836;BME280;3963;42.658;23.298;2022-09-09T02:46:10;60172.78;;;15.97;100.00
7836;BME280;3963;42.658;23.298;2022-09-09T02:48:48;60186.09;;;16.05;100.00
7836;BME280;3963;42.658;23.298;2022-09-09T02:51:24;60192.41;;;16.06;100.00
7836;BME280;3963;42.658;23.298;2022-09-09T02:53:59;60209.78;;;16.10;100.00
7836;BME280;3963;42.658;23.298;2022-09-09T02:56:31;60184.94;;;16.01;100.00
7836;BME280;3963;42.658;23.298;2022-09-09T02:59:04;60172.78;;;15.97;100.00
7836;BME280;3963;42.658;23.298;2022-09-09T03:01:34;60190.06;;;15.99;100.00
7836;BME280;3963;42.658;23.298;2022-09-09T03:04:02;60209.69;;;16.08;100.00
7836;BME280;3963;42.658;23.298;2022-09-09T03:06:30;60175.09;;;16.04;100.00
7836;BME280;3963;42.658;23.298;2022-09-09T03:08:57;60194.56;;;16.08;100.00
7836;BME280;3963;42.658;23.298;2022-09-09T03:11:26;60228.00;;;16.08;100.00
7836;BME280;3963;42.658;23.298;2022-09-09T03:13:53;60188.09;;;16.02;100.00
7836;BME280;3963;42.658;23.298;2022-09-09T03:16:21;60178.66;;;16.00;100.00
7836;BME280;3963;42.658;23.298;2022-09-09T03:18:49;60167.13;;;15.99;100.00
7836;BME280;3963;42.658;23.298;2022-09-09T03:21:16;60158.97;;;15.75;100.00
7836;BME280;3963;42.658;23.298;2022-09-09T03:23:43;60137.16;;;15.79;100.00
7836;BME280;3963;42.658;23.298;2022-09-09T03:26:10;60143.47;;;15.80;100.00
7836;BME280;3963;42.658;23.298;2022-09-09T03:28:37;60191.75;;;15.86;100.00
7836;BME280;3963;42.658;23.298;2022-09-09T03:31:06;60173.03;;;15.73;100.00
7836;BME280;3963;42.658;23.298;2022-09-09T03:33:35;60099.06;;;15.48;100.00
7836;BME280;3963;42.658;23.298;2022-09-09T03:36:04;60101.59;;;15.31;100.00
7836;BME280;3963;42.658;23.298;2022-09-09T03:38:32;60094.84;;;15.32;100.00
7836;BME280;3963;42.658;23.298;2022-09-09T03:41:00;60106.09;;;15.40;100.00
7836;BME280;3963;42.658;23.298;2022-09-09T03:43:28;60115.97;;;15.39;100.00
7836;BME280;3963;42.658;23.298;2022-09-09T03:45:55;60083.63;;;15.24;100.00
7836;BME280;3963;42.658;23.298;2022-09-09T03:48:23;60097.38;;;15.29;100.00
7836;BME280;3963;42.658;23.298;2022-09-09T03:50:52;60089.19;;;15.34;100.00
7836;BME280;3963;42.658;23.298;2022-09-09T03:53:22;60122.28;;;15.40;100.00
7836;BME280;3963;42.658;23.298;2022-09-09T03:55:51;60101.75;;;15.50;100.00
7836;BME280;3963;42.658;23.298;2022-09-09T03:58:21;60155.13;;;15.54;100.00
7836;BME280;3963;42.658;23.298;2022-09-09T04:00:53;60127.94;;;15.53;100.00
7836;BME280;3963;42.658;23.298;2022-09-09T04:03:20;60107.31;;;15.61;100.00
7836;BME280;3963;42.658;23.298;2022-09-09T04:05:50;60104.72;;;15.61;100.00
7836;BME280;3963;42.658;23.298;2022-09-09T04:08:16;60085.88;;;15.60;100.00
7836;BME280;3963;42.658;23.298;2022-09-09T04:10:46;60106.06;;;15.55;100.00
7836;BME280;3963;42.658;23.298;2022-09-09T04:13:13;60075.56;;;15.48;100.00
7836;BME280;3963;42.658;23.298;2022-09-09T04:15:42;60073.69;;;15.39;100.00
7836;BME280;3963;42.658;23.298;2022-09-09T04:18:09;60122.91;;;15.43;100.00
7836;BME280;3963;42.658;23.298;2022-09-09T04:20:37;60129.84;;;15.47;100.00
7836;BME280;3963;42.658;23.298;2022-09-09T04:23:03;60104.28;;;15.48;100.00
7836;BME280;3963;42.658;23.298;2022-09-09T04:25:31;60096.53;;;15.50;100.00
7836;BME280;3963;42.658;23.298;2022-09-09T04:28:00;60124.06;;;15.62;100.00
7836;BME280;3963;42.658;23.298;2022-09-09T04:30:28;60124.16;;;15.64;100.00
7836;BME280;3963;42.658;23.298;2022-09-09T04:32:55;60126.38;;;15.69;100.00
7836;BME280;3963;42.658;23.298;2022-09-09T04:35:22;60127.53;;;15.72;100.00
7836;BME280;3963;42.658;23.298;2022-09-09T04:37:50;60165.47;;;15.66;100.00
7836;BME280;3963;42.658;23.298;2022-09-09T04:40:17;60146.66;;;15.66;100.00
7836;BME280;3963;42.658;23.298;2022-09-09T04:42:43;60141.34;;;15.63;100.00
7836;BME280;3963;42.658;23.298;2022-09-09T04:45:13;60157.16;;;15.68;100.00
7836;BME280;3963;42.658;23.298;2022-09-09T04:47:40;60161.66;;;15.77;100.00
7836;BME280;3963;42.658;23.298;2022-09-09T04:50:08;60146.66;;;15.66;100.00
7836;BME280;3963;42.658;23.298;2022-09-09T04:52:35;60142.03;;;15.69;100.00
7836;BME280;3963;42.658;23.298;2022-09-09T04:55:03;60161.03;;;15.74;100.00
7836;BME280;3963;42.658;23.298;2022-09-09T04:57:30;60164.88;;;15.80;100.00
7836;BME280;3963;42.658;23.298;2022-09-09T04:59:58;60176.78;;;15.91;100.00
7836;BME280;3963;42.658;23.298;2022-09-09T05:02:27;60206.38;;;16.02;100.00
7836;BME280;3963;42.658;23.298;2022-09-09T05:04:55;60203.72;;;16.17;100.00
7836;BME280;3963;42.658;23.298;2022-09-09T05:07:22;60217.22;;;16.29;100.00
7836;BME280;3963;42.658;23.298;2022-09-09T05:09:49;60245.97;;;16.29;100.00
7836;BME280;3963;42.658;23.298;2022-09-09T05:12:16;60233.28;;;16.25;100.00
7836;BME280;3963;42.658;23.298;2022-09-09T05:14:43;60247.81;;;16.53;100.00
7836;BME280;3963;42.658;23.298;2022-09-09T05:17:11;60291.00;;;16.62;100.00
7836;BME280;3963;42.658;23.298;2022-09-09T05:19:39;60243.47;;;16.64;100.00
7836;BME280;3963;42.658;23.298;2022-09-09T05:22:06;60283.13;;;16.76;100.00
7836;BME280;3963;42.658;23.298;2022-09-09T05:24:33;60339.50;;;16.87;100.00
7836;BME280;3963;42.658;23.298;2022-09-09T05:27:02;60329.84;;;16.95;100.00
7836;BME280;3963;42.658;23.298;2022-09-09T05:29:31;60328.16;;;17.08;100.00
7836;BME280;3963;42.658;23.298;2022-09-09T05:31:58;60337.47;;;17.20;100.00
7836;BME280;3963;42.658;23.298;2022-09-09T05:34:25;60363.34;;;17.27;100.00
7836;BME280;3963;42.658;23.298;2022-09-09T05:36:54;60368.75;;;17.32;100.00
7836;BME280;3963;42.658;23.298;2022-09-09T05:39:21;60385.16;;;17.37;100.00
7836;BME280;3963;42.658;23.298;2022-09-09T05:41:47;60368.00;;;17.41;100.00
7836;BME280;3963;42.658;23.298;2022-09-09T05:44:14;60377.13;;;17.47;100.00
7836;BME280;3963;42.658;23.298;2022-09-09T05:46:41;60392.09;;;17.56;100.00
7836;BME280;3963;42.658;23.298;2022-09-09T05:49:08;60411.69;;;17.62;100.00
7836;BME280;3963;42.658;23.298;2022-09-09T05:51:36;60408.22;;;17.68;100.00
7836;BME280;3963;42.658;23.298;2022-09-09T05:54:04;60453.56;;;17.77;100.00
7836;BME280;3963;42.658;23.298;2022-09-09T05:56:31;60479.56;;;17.86;100.00
7836;BME280;3963;42.658;23.298;2022-09-09T05:59:00;60470.16;;;17.87;100.00
7836;BME280;3963;42.658;23.298;2022-09-09T06:01:28;60499.44;;;18.00;100.00
7836;BME280;3963;42.658;23.298;2022-09-09T06:03:55;60469.78;;;18.06;100.00
7836;BME280;3963;42.658;23.298;2022-09-09T06:06:23;60488.00;;;18.18;100.00
7836;BME280;3963;42.658;23.298;2022-09-09T06:08:52;60515.84;;;18.20;100.00
7836;BME280;3963;42.658;23.298;2022-09-09T06:11:22;60504.38;;;18.21;100.00
7836;BME280;3963;42.658;23.298;2022-09-09T06:13:50;60501.00;;;18.31;100.00
7836;BME280;3963;42.658;23.298;2022-09-09T06:16:21;60535.34;;;18.38;100.00
7836;BME280;3963;42.658;23.298;2022-09-09T06:18:49;60444.97;;;18.17;100.00
7836;BME280;3963;42.658;23.298;2022-09-09T06:21:17;60548.53;;;18.41;100.00
7836;BME280;3963;42.658;23.298;2022-09-09T06:23:44;60522.69;;;18.36;100.00
7836;BME280;3963;42.658;23.298;2022-09-09T06:26:13;60547.56;;;18.42;100.00
7836;BME280;3963;42.658;23.298;2022-09-09T06:28:41;60537.88;;;18.50;100.00
7836;BME280;3963;42.658;23.298;2022-09-09T06:31:09;60555.38;;;18.71;100.00
7836;BME280;3963;42.658;23.298;2022-09-09T06:33:38;60596.34;;;18.88;100.00
7836;BME280;3963;42.658;23.298;2022-09-09T06:36:07;60643.56;;;19.02;100.00
7836;BME280;3963;42.658;23.298;2022-09-09T06:38:36;60632.31;;;19.11;100.00
7836;BME280;3963;42.658;23.298;2022-09-09T06:41:04;60621.38;;;19.13;100.00
7836;BME280;3963;42.658;23.298;2022-09-09T06:43:31;60620.69;;;19.25;100.00
7836;BME280;3963;42.658;23.298;2022-09-09T06:46:03;60678.19;;;19.32;100.00
7836;BME280;3963;42.658;23.298;2022-09-09T06:48:31;60626.94;;;19.23;100.00
7836;BME280;3963;42.658;23.298;2022-09-09T06:51:03;60655.00;;;19.30;100.00
7836;BME280;3963;42.658;23.298;2022-09-09T06:53:34;60667.28;;;19.51;100.00
7836;BME280;3963;42.658;23.298;2022-09-09T06:56:13;60713.31;;;19.60;100.00
7836;BME280;3963;42.658;23.298;2022-09-09T06:58:44;60734.94;;;19.77;100.00
7836;BME280;3963;42.658;23.298;2022-09-09T07:01:14;60749.31;;;19.98;100.00
7836;BME280;3963;42.658;23.298;2022-09-09T07:03:42;60753.53;;;20.14;100.00
7836;BME280;3963;42.658;23.298;2022-09-09T07:06:13;60805.94;;;20.24;100.00
7836;BME280;3963;42.658;23.298;2022-09-09T07:08:42;60782.19;;;20.21;100.00
7836;BME280;3963;42.658;23.298;2022-09-09T07:11:09;60800.50;;;20.33;100.00
7836;BME280;3963;42.658;23.298;2022-09-09T07:13:37;60820.97;;;20.48;100.00
7836;BME280;3963;42.658;23.298;2022-09-09T07:16:05;60848.09;;;20.56;100.00
7836;BME280;3963;42.658;23.298;2022-09-09T07:18:33;60842.63;;;20.65;100.00
7836;BME280;3963;42.658;23.298;2022-09-09T07:21:01;60885.31;;;20.66;100.00
7836;BME280;3963;42.658;23.298;2022-09-09T07:23:29;60844.69;;;20.79;100.00
7836;BME280;3963;42.658;23.298;2022-09-09T07:25:56;60878.91;;;20.79;100.00
7836;BME280;3963;42.658;23.298;2022-09-09T07:28:24;60872.34;;;20.88;100.00
7836;BME280;3963;42.658;23.298;2022-09-09T07:30:55;60908.22;;;20.89;100.00
7836;BME280;3963;42.658;23.298;2022-09-09T07:33:22;60933.66;;;21.08;100.00
7836;BME280;3963;42.658;23.298;2022-09-09T07:35:51;60947.69;;;21.19;100.00
7836;BME280;3963;42.658;23.298;2022-09-09T07:38:19;60937.56;;;21.14;100.00
7836;BME280;3963;42.658;23.298;2022-09-09T07:40:48;60928.28;;;21.20;100.00
7836;BME280;3963;42.658;23.298;2022-09-09T07:43:14;60970.94;;;21.35;100.00
7836;BME280;3963;42.658;23.298;2022-09-09T07:45:42;60977.84;;;21.37;100.00
7836;BME280;3963;42.658;23.298;2022-09-09T07:48:09;61015.06;;;21.62;100.00
7836;BME280;3963;42.658;23.298;2022-09-09T07:50:37;61028.56;;;21.86;100.00
7836;BME280;3963;42.658;23.298;2022-09-09T07:53:05;61038.50;;;21.98;100.00
7836;BME280;3963;42.658;23.298;2022-09-09T07:55:32;61103.97;;;22.15;100.00
7836;BME280;3963;42.658;23.298;2022-09-09T07:57:59;61094.38;;;22.28;100.00
7836;BME280;3963;42.658;23.298;2022-09-09T08:00:25;61110.06;;;22.54;100.00
7836;BME280;3963;42.658;23.298;2022-09-09T08:02:54;61143.72;;;22.81;100.00
7836;BME280;3963;42.658;23.298;2022-09-09T08:05:21;61218.34;;;23.15;99.96
7836;BME280;3963;42.658;23.298;2022-09-09T08:07:48;61244.59;;;23.40;97.84
7836;BME280;3963;42.658;23.298;2022-09-09T08:10:16;61347.13;;;23.83;95.79
7836;BME280;3963;42.658;23.298;2022-09-09T08:12:43;61395.69;;;24.40;91.96
7836;BME280;3963;42.658;23.298;2022-09-09T08:15:11;61404.28;;;24.29;92.84
7836;BME280;3963;42.658;23.298;2022-09-09T08:17:38;61468.34;;;24.73;90.69
7836;BME280;3963;42.658;23.298;2022-09-09T08:20:05;61529.72;;;25.15;88.40
7836;BME280;3963;42.658;23.298;2022-09-09T08:22:32;61594.63;;;25.50;85.72
7836;BME280;3963;42.658;23.298;2022-09-09T08:24:59;61624.59;;;25.73;85.00
7836;BME280;3963;42.658;23.298;2022-09-09T08:27:28;61706.94;;;26.05;83.73
7836;BME280;3963;42.658;23.298;2022-09-09T08:29:55;61638.69;;;25.66;83.87
7836;BME280;3963;42.658;23.298;2022-09-09T08:32:22;61618.09;;;25.69;84.89
7836;BME280;3963;42.658;23.298;2022-09-09T08:34:49;61630.00;;;25.75;83.41
7836;BME280;3963;42.658;23.298;2022-09-09T08:37:16;61581.72;;;25.31;85.58
7836;BME280;3963;42.658;23.298;2022-09-09T08:39:44;61590.13;;;25.44;85.05
7836;BME280;3963;42.658;23.298;2022-09-09T08:42:25;61575.03;;;25.52;84.32
7836;BME280;3963;42.658;23.298;2022-09-09T08:45:21;61595.91;;;25.42;84.94
7836;BME280;3963;42.658;23.298;2022-09-09T08:48:00;61561.16;;;25.34;83.33
7836;BME280;3963;42.658;23.298;2022-09-09T08:50:30;61614.16;;;25.78;82.21
7836;BME280;3963;42.658;23.298;2022-09-09T08:53:04;61700.09;;;26.06;79.95
7836;BME280;3963;42.658;23.298;2022-09-09T08:55:40;61769.34;;;26.40;71.08
7836;BME280;3963;42.658;23.298;2022-09-09T08:58:13;61771.38;;;26.69;68.66
7836;BME280;3963;42.658;23.298;2022-09-09T09:00:59;61765.16;;;26.58;68.96
7836;BME280;3963;42.658;23.298;2022-09-09T09:03:35;61692.75;;;26.23;69.35
7836;BME280;3963;42.658;23.298;2022-09-09T09:06:09;61703.59;;;26.46;68.36
7836;BME280;3963;42.658;23.298;2022-09-09T09:08:45;61820.34;;;26.84;65.05
7836;BME280;3963;42.658;23.298;2022-09-09T09:11:14;61911.75;;;27.56;63.84
7836;BME280;3963;42.658;23.298;2022-09-09T09:13:44;61993.44;;;28.07;61.99
7836;BME280;3963;42.658;23.298;2022-09-09T09:16:21;61916.59;;;27.58;60.50
7836;BME280;3963;42.658;23.298;2022-09-09T09:18:51;61880.72;;;27.37;59.65
7836;BME280;3963;42.658;23.298;2022-09-09T09:21:23;61920.66;;;27.37;59.48
7836;BME280;3963;42.658;23.298;2022-09-09T09:23:56;61922.69;;;27.49;59.77
7836;BME280;3963;42.658;23.298;2022-09-09T09:26:26;61870.91;;;27.31;59.87
7836;BME280;3963;42.658;23.298;2022-09-09T09:28:56;61821.41;;;27.00;60.74
7836;BME280;3963;42.658;23.298;2022-09-09T09:31:25;61815.03;;;26.84;60.66
7836;BME280;3963;42.658;23.298;2022-09-09T09:33:53;61797.22;;;26.78;60.25
7836;BME280;3963;42.658;23.298;2022-09-09T09:36:24;61800.16;;;26.85;60.21
7836;BME280;3963;42.658;23.298;2022-09-09T09:38:54;61888.25;;;27.39;58.77
7836;BME280;3963;42.658;23.298;2022-09-09T09:41:29;62005.28;;;28.10;56.24
7836;BME280;3963;42.658;23.298;2022-09-09T09:43:56;62080.34;;;28.67;55.04
7836;BME280;3963;42.658;23.298;2022-09-09T09:46:26;62198.06;;;29.06;54.04
7836;BME280;3963;42.658;23.298;2022-09-09T09:49:00;62145.19;;;28.75;55.34
7836;BME280;3963;42.658;23.298;2022-09-09T09:51:28;62094.03;;;28.47;54.47
7836;BME280;3963;42.658;23.298;2022-09-09T09:54:07;62051.22;;;28.28;56.02
7836;BME280;3963;42.658;23.298;2022-09-09T09:56:39;62024.75;;;28.03;56.34
7836;BME280;3963;42.658;23.298;2022-09-09T09:59:20;62001.25;;;28.01;55.54
7836;BME280;3963;42.658;23.298;2022-09-09T10:01:48;62000.13;;;28.00;55.83
7836;BME280;3963;42.658;23.298;2022-09-09T10:04:17;61972.56;;;27.90;56.05
7836;BME280;3963;42.658;23.298;2022-09-09T10:06:46;61909.19;;;27.59;56.45
7836;BME280;3963;42.658;23.298;2022-09-09T10:09:22;61917.63;;;27.42;58.01
7836;BME280;3963;42.658;23.298;2022-09-09T10:11:57;61888.16;;;27.37;58.80
7836;BME280;3963;42.658;23.298;2022-09-09T10:14:33;61850.03;;;27.12;57.47
7836;BME280;3963;42.658;23.298;2022-09-09T10:17:15;61824.03;;;26.83;58.00
7836;BME280;3963;42.658;23.298;2022-09-09T10:19:53;61786.44;;;26.58;59.56
7836;BME280;3963;42.658;23.298;2022-09-09T10:22:26;61743.91;;;26.58;59.28
7836;BME280;3963;42.658;23.298;2022-09-09T10:25:14;61747.03;;;26.56;59.00
7836;BME280;3963;42.658;23.298;2022-09-09T10:27:56;61734.91;;;26.60;59.01
7836;BME280;3963;42.658;23.298;2022-09-09T10:30:33;61757.75;;;26.59;59.89
7836;BME280;3963;42.658;23.298;2022-09-09T10:33:09;61764.06;;;26.57;60.30
7836;BME280;3963;42.658;23.298;2022-09-09T10:35:42;61687.44;;;26.23;61.53
7836;BME280;3963;42.658;23.298;2022-09-09T10:38:17;61690.81;;;26.14;62.88
7836;BME280;3963;42.658;23.298;2022-09-09T10:40:59;61681.13;;;25.96;63.96
7836;BME280;3963;42.658;23.298;2022-09-09T10:43:56;61689.94;;;25.89;64.20
7836;BME280;3963;42.658;23.298;2022-09-09T10:46:36;61652.56;;;25.99;67.12
7836;BME280;3963;42.658;23.298;2022-09-09T10:49:16;61620.91;;;25.89;66.88
7836;BME280;3963;42.658;23.298;2022-09-09T10:51:50;61668.84;;;26.09;63.86
7836;BME280;3963;42.658;23.298;2022-09-09T10:54:35;61703.94;;;26.24;64.30
7836;BME280;3963;42.658;23.298;2022-09-09T10:57:11;61688.72;;;26.15;64.18
7836;BME280;3963;42.658;23.298;2022-09-09T11:19:59;61651.09;;;26.02;69.30
7836;BME280;3963;42.658;23.298;2022-09-09T11:22:31;61700.16;;;26.23;67.62
7836;BME280;3963;42.658;23.298;2022-09-09T11:25:03;61678.78;;;26.35;67.15
7836;BME280;3963;42.658;23.298;2022-09-09T11:27:36;61706.63;;;26.41;67.13
7836;BME280;3963;42.658;23.298;2022-09-09T11:30:22;61695.94;;;26.24;67.85
7836;BME280;3963;42.658;23.298;2022-09-09T11:36:01;61696.66;;;26.29;68.29
7836;BME280;3963;42.658;23.298;2022-09-09T11:38:37;61739.19;;;26.29;67.95
7836;BME280;3963;42.658;23.298;2022-09-09T11:41:08;61713.59;;;26.43;68.36
7836;BME280;3963;42.658;23.298;2022-09-09T11:43:39;61731.56;;;26.39;68.30
7836;BME280;3963;42.658;23.298;2022-09-09T11:46:08;61717.22;;;26.24;68.42
7836;BME280;3963;42.658;23.298;2022-09-09T11:48:37;61676.34;;;26.25;68.79
7836;BME280;3963;42.658;23.298;2022-09-09T11:51:11;61716.94;;;26.31;69.57
7836;BME280;3963;42.658;23.298;2022-09-09T11:53:49;61702.38;;;25.96;69.35
7836;BME280;3963;42.658;23.298;2022-09-09T11:56:28;61655.66;;;26.11;70.14
7836;BME280;3963;42.658;23.298;2022-09-09T11:59:01;61691.66;;;26.08;70.55
7836;BME280;3963;42.658;23.298;2022-09-09T12:01:33;61679.22;;;26.16;70.20
7836;BME280;3963;42.658;23.298;2022-09-09T12:07:01;61723.63;;;26.71;67.32
7836;BME280;3963;42.658;23.298;2022-09-09T12:09:43;61897.63;;;27.19;64.92
7836;BME280;3963;42.658;23.298;2022-09-09T12:12:28;61855.97;;;27.44;63.81
7836;BME280;3963;42.658;23.298;2022-09-09T12:14:57;61875.22;;;27.47;65.96
7836;BME280;3963;42.658;23.298;2022-09-09T12:17:27;61947.44;;;27.72;64.50
7836;BME280;3963;42.658;23.298;2022-09-09T12:20:12;61894.94;;;27.48;64.38
7836;BME280;3963;42.658;23.298;2022-09-09T12:22:51;61952.50;;;27.64;64.51
7836;BME280;3963;42.658;23.298;2022-09-09T12:25:28;61915.50;;;27.57;63.25
7836;BME280;3963;42.658;23.298;2022-09-09T12:28:04;61916.16;;;27.45;63.95
7836;BME280;3963;42.658;23.298;2022-09-09T12:30:39;61926.44;;;27.50;64.17
7836;BME280;3963;42.658;23.298;2022-09-09T12:33:11;61923.94;;;27.70;62.64
7836;BME280;3963;42.658;23.298;2022-09-09T12:35:40;61874.25;;;27.19;64.38
7836;BME280;3963;42.658;23.298;2022-09-09T12:38:13;61849.94;;;27.09;64.50
7836;BME280;3963;42.658;23.298;2022-09-09T12:40:54;61825.91;;;27.07;65.27
7836;BME280;3963;42.658;23.298;2022-09-09T12:43:23;61838.75;;;27.09;65.97
7836;BME280;3963;42.658;23.298;2022-09-09T12:45:51;61800.31;;;27.05;66.07
7836;BME280;3963;42.658;23.298;2022-09-09T12:48:27;61819.13;;;27.10;66.14
7836;BME280;3963;42.658;23.298;2022-09-09T12:50:55;61830.03;;;27.18;66.13
7836;BME280;3963;42.658;23.298;2022-09-09T12:53:26;61850.56;;;27.12;65.93
7836;BME280;3963;42.658;23.298;2022-09-09T12:55:57;61858.84;;;27.05;65.82
7836;BME280;3963;42.658;23.298;2022-09-09T12:58:26;61845.78;;;27.27;65.84
7836;BME280;3963;42.658;23.298;2022-09-09T13:00:58;61876.63;;;27.26;65.86
7836;BME280;3963;42.658;23.298;2022-09-09T13:03:26;61881.41;;;27.26;66.13
7836;BME280;3963;42.658;23.298;2022-09-09T13:05:54;61853.88;;;27.15;66.45
7836;BME280;3963;42.658;23.298;2022-09-09T13:08:25;61858.81;;;27.20;66.89
7836;BME280;3963;42.658;23.298;2022-09-09T13:10:55;61866.19;;;27.17;65.30
7836;BME280;3963;42.658;23.298;2022-09-09T13:13:26;61829.13;;;27.07;64.84
7836;BME280;3963;42.658;23.298;2022-09-09T13:15:56;61795.84;;;26.99;65.15
7836;BME280;3963;42.658;23.298;2022-09-09T13:18:25;61802.53;;;26.92;65.25
7836;BME280;3963;42.658;23.298;2022-09-09T13:20:53;61783.03;;;26.67;66.04
7836;BME280;3963;42.658;23.298;2022-09-09T13:23:21;61733.81;;;26.59;67.79
7836;BME280;3963;42.658;23.298;2022-09-09T13:25:57;61714.25;;;26.46;68.06
7836;BME280;3963;42.658;23.298;2022-09-09T13:28:26;61758.78;;;26.43;67.89
7836;BME280;3963;42.658;23.298;2022-09-09T13:30:57;61741.00;;;26.36;68.37
7836;BME280;3963;42.658;23.298;2022-09-09T13:33:35;61692.47;;;26.30;69.34
7836;BME280;3963;42.658;23.298;2022-09-09T13:36:04;61715.53;;;26.37;69.40
7836;BME280;3963;42.658;23.298;2022-09-09T13:38:33;61750.53;;;26.35;70.23
7836;BME280;3963;42.658;23.298;2022-09-09T13:41:05;61712.41;;;26.39;69.98
7836;BME280;3963;42.658;23.298;2022-09-09T13:43:36;61717.63;;;26.51;69.04
7836;BME280;3963;42.658;23.298;2022-09-09T13:46:20;61766.28;;;26.59;67.80
7836;BME280;3963;42.658;23.298;2022-09-09T13:48:54;61739.13;;;26.59;68.72
7836;BME280;3963;42.658;23.298;2022-09-09T13:51:29;61739.00;;;26.71;68.67
7836;BME280;3963;42.658;23.298;2022-09-09T13:53:57;61758.91;;;26.77;69.39